Time;durP1;ratioP1;P1;durP2;ratioP2;P2;SDS_P1;SDS_P2;PMS_P1;PMS_P2;Temp;Humidity;BMP_temperature;BMP_pressure;BME280_temperature;BME280_humidity;BME280_pressure;Samples;Min_cycle;Max_cycle;Signal;HPM_P1;HPM_P2
2022/08/08 00:02:29;;;;;;;0.80;0.80;;;;;;;;;;5040082;28;20197;-69
2022/08/08 00:04:57;;;;;;;0.70;0.70;;;;;;;;;;5039717;28;20222;-69
2022/08/08 00:07:28;;;;;;;0.73;0.73;;;;;;;;;;5039903;28;20208;-69
2022/08/08 00:09:59;;;;;;;0.70;0.70;;;;;;;;;;5039867;28;20384;-69
2022/08/08 00:12:27;;;;;;;0.80;0.80;;;;;;;;;;5039588;28;20228;-69
2022/08/08 00:14:56;;;;;;;0.70;0.70;;;;;;;;;;5039424;28;20202;-69
2022/08/08 00:17:25;;;;;;;0.70;0.70;;;;;;;;;;5039325;28;20198;-69
2022/08/08 00:19:55;;;;;;;0.80;0.80;;;;;;;;;;5039425;28;20221;-69
2022/08/08 00:22:24;;;;;;;0.93;0.75;;;;;;;;;;5039198;28;20407;-69
2022/08/08 00:24:54;;;;;;;1.08;1.00;;;;;;;;;;5039621;28;20198;-69
2022/08/08 00:27:21;;;;;;;0.80;0.80;;;;;;;;;;5039239;28;20220;-69
2022/08/08 00:29:48;;;;;;;1.08;1.00;;;;;;;;;;5039279;28;20243;-69
2022/08/08 00:32:17;;;;;;;1.00;0.88;;;;;;;;;;5039148;28;20222;-69
2022/08/08 00:37:41;;;;;;;0.75;0.75;;;;;;;;;;5039028;28;20235;-69
2022/08/08 00:40:20;;;;;;;0.88;0.80;;;;;;;;;;5041625;28;20198;-69
2022/08/08 00:42:53;;;;;;;1.58;0.80;;;;;;;;;;5042788;28;20388;-69
2022/08/08 00:45:50;;;;;;;1.20;1.10;;;;;;;;;;5042603;28;20206;-69
2022/08/08 00:48:31;;;;;;;0.82;0.82;;;;;;;;;;5083780;28;20512;-69
2022/08/08 00:51:23;;;;;;;0.93;0.82;;;;;;;;;;5042241;28;20222;-69
2022/08/08 00:54:02;;;;;;;0.80;0.80;;;;;;;;;;5042519;28;20229;-69
2022/08/08 00:56:45;;;;;;;1.65;0.80;;;;;;;;;;5042304;28;20243;-69
2022/08/08 00:59:31;;;;;;;0.85;0.85;;;;;;;;;;5042293;28;20212;-69
2022/08/08 01:02:01;;;;;;;1.05;0.60;;;;;;;;;;5042136;28;20264;-69
2022/08/08 01:04:46;;;;;;;2.30;0.90;;;;;;;;;;5042209;28;20198;-69
2022/08/08 01:07:43;;;;;;;1.92;0.90;;;;;;;;;;5041993;28;20239;-69
2022/08/08 01:10:24;;;;;;;2.10;0.98;;;;;;;;;;5083225;28;20519;-69
2022/08/08 01:13:08;;;;;;;1.00;1.00;;;;;;;;;;5047463;28;20198;-69
2022/08/08 01:15:49;;;;;;;0.98;0.98;;;;;;;;;;5048524;28;20505;-69
2022/08/08 01:18:23;;;;;;;0.90;0.90;;;;;;;;;;5041913;28;20198;-69
2022/08/08 01:21:20;;;;;;;0.90;0.90;;;;;;;;;;5042314;28;20222;-69
2022/08/08 01:24:01;;;;;;;0.80;0.80;;;;;;;;;;5083486;28;20519;-69
2022/08/08 01:26:37;;;;;;;0.75;0.70;;;;;;;;;;5055718;28;20197;-69
2022/08/08 01:29:24;;;;;;;0.60;0.60;;;;;;;;;;5041985;28;20227;-69
2022/08/08 01:32:23;;;;;;;1.10;1.00;;;;;;;;;;5041812;28;20221;-69
2022/08/08 01:35:03;;;;;;;0.80;0.80;;;;;;;;;;5042082;28;20235;-69
2022/08/08 01:37:53;;;;;;;0.73;0.73;;;;;;;;;;5041978;28;20505;-69
2022/08/08 01:40:23;;;;;;;0.77;0.75;;;;;;;;;;5041874;28;20214;-69
2022/08/08 01:42:50;;;;;;;0.80;0.80;;;;;;;;;;5041774;28;20194;-69
2022/08/08 01:45:32;;;;;;;0.75;0.70;;;;;;;;;;5041699;28;20198;-69
2022/08/08 01:48:02;;;;;;;0.80;0.65;;;;;;;;;;5041643;28;20198;-69
2022/08/08 01:50:39;;;;;;;0.73;0.73;;;;;;;;;;5041642;28;20186;-69
2022/08/08 01:53:11;;;;;;;0.93;0.93;;;;;;;;;;5041275;28;20205;-69
2022/08/08 01:55:42;;;;;;;1.40;1.10;;;;;;;;;;5041553;28;20202;-69
2022/08/08 01:58:24;;;;;;;1.65;0.90;;;;;;;;;;5040516;28;20198;-69
2022/08/08 02:00:55;;;;;;;1.70;0.80;;;;;;;;;;5041904;28;20269;-69
2022/08/08 02:03:29;;;;;;;0.80;0.80;;;;;;;;;;5041528;28;20273;-69
2022/08/08 02:06:02;;;;;;;0.98;0.98;;;;;;;;;;5041207;28;20259;-69
2022/08/08 02:08:34;;;;;;;0.88;0.88;;;;;;;;;;5041521;28;20197;-69
2022/08/08 02:11:06;;;;;;;2.35;1.00;;;;;;;;;;5041530;27;20194;-69
2022/08/08 02:13:36;;;;;;;0.82;0.82;;;;;;;;;;5041497;28;20221;-69
2022/08/08 02:16:16;;;;;;;0.90;0.90;;;;;;;;;;5040916;28;20198;-69
2022/08/08 02:18:43;;;;;;;0.88;0.88;;;;;;;;;;5041366;28;20198;-69
2022/08/08 02:24:02;;;;;;;0.90;0.90;;;;;;;;;;5041165;28;20239;-69
2022/08/08 02:26:32;;;;;;;1.00;1.00;;;;;;;;;;5040701;28;20198;-69
2022/08/08 02:29:00;;;;;;;0.80;0.80;;;;;;;;;;5041504;28;20197;-69
2022/08/08 02:31:38;;;;;;;1.00;1.00;;;;;;;;;;5041090;28;20222;-68
2022/08/08 02:34:09;;;;;;;1.23;1.10;;;;;;;;;;5041116;28;20198;-68
2022/08/08 02:36:42;;;;;;;1.70;0.90;;;;;;;;;;5040680;28;20238;-68
2022/08/08 02:39:25;;;;;;;1.50;0.85;;;;;;;;;;5040814;28;20243;-68
2022/08/08 02:42:06;;;;;;;0.90;0.90;;;;;;;;;;5040969;28;20201;-68
2022/08/08 02:44:59;;;;;;;1.00;1.00;;;;;;;;;;5041021;28;20197;-68
2022/08/08 02:47:56;;;;;;;1.02;0.88;;;;;;;;;;5040483;28;20206;-68
2022/08/08 02:50:49;;;;;;;1.10;1.10;;;;;;;;;;5040670;28;20198;-68
2022/08/08 02:53:33;;;;;;;1.00;1.00;;;;;;;;;;5040459;28;20228;-68
2022/08/08 02:56:23;;;;;;;2.05;1.02;;;;;;;;;;5046686;28;20205;-68
2022/08/08 02:59:14;;;;;;;1.20;1.20;;;;;;;;;;5040978;28;20210;-68
2022/08/08 03:01:52;;;;;;;1.30;1.25;;;;;;;;;;5039944;28;20502;-68
2022/08/08 03:04:33;;;;;;;1.25;1.23;;;;;;;;;;5040509;28;20201;-68
2022/08/08 03:07:23;;;;;;;1.17;1.05;;;;;;;;;;5041399;28;20202;-68
2022/08/08 03:10:08;;;;;;;1.08;1.05;;;;;;;;;;5040451;28;20198;-68
2022/08/08 03:12:48;;;;;;;3.60;1.20;;;;;;;;;;5040625;28;20233;-68
2022/08/08 03:15:25;;;;;;;1.02;1.02;;;;;;;;;;5040532;28;20205;-68
2022/08/08 03:17:54;;;;;;;1.48;1.20;;;;;;;;;;5040243;28;20201;-68
2022/08/08 03:20:20;;;;;;;1.05;1.05;;;;;;;;;;5040229;28;20206;-68
2022/08/08 03:22:49;;;;;;;2.38;1.00;;;;;;;;;;5040167;28;20194;-68
2022/08/08 03:25:16;;;;;;;1.05;1.05;;;;;;;;;;5040250;28;20198;-68
2022/08/08 03:27:46;;;;;;;2.60;1.20;;;;;;;;;;5039946;28;20234;-68
2022/08/08 03:30:13;;;;;;;1.25;1.17;;;;;;;;;;5040080;28;20221;-68
2022/08/08 03:35:24;;;;;;;1.50;1.40;;;;;;;;;;5040093;28;20235;-68
2022/08/08 03:37:52;;;;;;;1.27;1.00;;;;;;;;;;5039950;28;20251;-68
2022/08/08 03:40:19;;;;;;;2.45;1.40;;;;;;;;;;5040253;28;20441;-68
2022/08/08 03:42:45;;;;;;;1.20;1.20;;;;;;;;;;5039867;28;20201;-68
2022/08/08 03:45:12;;;;;;;1.40;1.13;;;;;;;;;;5040284;28;20235;-68
2022/08/08 03:47:39;;;;;;;1.13;1.02;;;;;;;;;;5039724;27;20235;-68
2022/08/08 03:50:14;;;;;;;3.72;1.30;;;;;;;;;;5039641;28;20198;-68
2022/08/08 03:52:40;;;;;;;1.30;1.30;;;;;;;;;;5039977;28;20220;-68
2022/08/08 03:55:10;;;;;;;1.25;1.15;;;;;;;;;;5039816;28;20214;-68
2022/08/08 03:57:37;;;;;;;1.65;1.55;;;;;;;;;;5039601;28;20393;-68
2022/08/08 04:00:07;;;;;;;1.30;1.30;;;;;;;;;;5039595;28;20210;-68
2022/08/08 04:02:34;;;;;;;1.65;1.52;;;;;;;;;;5039967;28;20194;-68
2022/08/08 04:05:02;;;;;;;1.70;1.60;;;;;;;;;;5039679;28;20222;-68
2022/08/08 04:07:34;;;;;;;1.63;1.52;;;;;;;;;;5039448;28;20198;-68
2022/08/08 04:10:01;;;;;;;1.67;1.60;;;;;;;;;;5039504;28;20243;-68
2022/08/08 04:12:28;;;;;;;1.50;1.50;;;;;;;;;;5039307;28;20229;-68
2022/08/08 04:14:55;;;;;;;2.80;1.50;;;;;;;;;;5038221;28;20201;-68
2022/08/08 04:17:21;;;;;;;1.20;1.20;;;;;;;;;;5039397;28;20197;-68
2022/08/08 04:19:48;;;;;;;2.70;1.63;;;;;;;;;;5039378;28;20243;-68
2022/08/08 04:22:14;;;;;;;1.35;1.35;;;;;;;;;;5039329;28;20205;-68
2022/08/08 04:24:40;;;;;;;1.30;1.10;;;;;;;;;;5039269;28;20427;-68
2022/08/08 04:27:06;;;;;;;1.42;1.33;;;;;;;;;;5038915;28;20198;-68
2022/08/08 04:29:34;;;;;;;1.40;1.40;;;;;;;;;;5039115;28;20207;-68
2022/08/08 04:32:00;;;;;;;1.92;1.52;;;;;;;;;;5039238;28;20221;-68
2022/08/08 04:34:27;;;;;;;1.70;1.60;;;;;;;;;;5039487;28;20246;-68
2022/08/08 04:36:53;;;;;;;4.07;1.70;;;;;;;;;;5038849;28;20197;-68
2022/08/08 04:39:19;;;;;;;1.60;1.60;;;;;;;;;;5039366;28;20198;-68
2022/08/08 04:41:45;;;;;;;4.15;1.80;;;;;;;;;;5039122;28;20198;-68
2022/08/08 04:44:12;;;;;;;1.70;1.60;;;;;;;;;;5039018;28;20251;-68
2022/08/08 04:46:39;;;;;;;1.50;1.50;;;;;;;;;;5038926;28;20225;-68
2022/08/08 04:49:05;;;;;;;2.22;1.77;;;;;;;;;;5039171;28;20439;-68
2022/08/08 04:51:32;;;;;;;3.05;1.55;;;;;;;;;;5038935;28;20498;-68
2022/08/08 04:53:58;;;;;;;1.73;1.67;;;;;;;;;;5038779;28;20205;-68
2022/08/08 04:56:24;;;;;;;1.42;1.42;;;;;;;;;;5038559;28;20198;-68
2022/08/08 04:58:50;;;;;;;1.88;1.77;;;;;;;;;;5039101;28;20202;-68
2022/08/08 05:01:17;;;;;;;1.60;1.50;;;;;;;;;;5039012;28;20202;-68
2022/08/08 05:03:45;;;;;;;1.52;1.52;;;;;;;;;;5038927;28;20198;-68
2022/08/08 05:06:11;;;;;;;1.67;1.58;;;;;;;;;;5037998;28;20244;-68
2022/08/08 05:08:37;;;;;;;2.58;1.58;;;;;;;;;;5038132;28;20255;-68
2022/08/08 05:11:03;;;;;;;2.00;1.90;;;;;;;;;;5038053;28;20198;-68
2022/08/08 05:13:30;;;;;;;2.13;1.92;;;;;;;;;;5038242;28;20221;-68
2022/08/08 05:15:56;;;;;;;3.60;1.55;;;;;;;;;;5038380;28;20250;-68
2022/08/08 05:18:22;;;;;;;1.90;1.80;;;;;;;;;;5038030;28;20251;-68
2022/08/08 05:20:50;;;;;;;1.80;1.70;;;;;;;;;;5038216;28;20557;-68
2022/08/08 05:23:16;;;;;;;3.35;1.65;;;;;;;;;;5038257;28;20197;-68
2022/08/08 05:25:42;;;;;;;1.83;1.73;;;;;;;;;;5039990;28;20202;-68
2022/08/08 05:28:08;;;;;;;1.90;1.80;;;;;;;;;;5041580;28;20513;-68
2022/08/08 05:30:37;;;;;;;4.35;2.22;;;;;;;;;;5041638;28;20202;-68
2022/08/08 05:33:03;;;;;;;1.60;1.50;;;;;;;;;;5041609;28;20218;-68
2022/08/08 05:35:30;;;;;;;3.53;1.85;;;;;;;;;;5041325;28;20244;-68
2022/08/08 05:38:00;;;;;;;2.80;1.90;;;;;;;;;;5041295;28;20202;-68
2022/08/08 05:40:28;;;;;;;3.70;2.20;;;;;;;;;;5041187;28;20206;-68
2022/08/08 05:42:55;;;;;;;2.50;2.13;;;;;;;;;;5041387;28;20277;-68
2022/08/08 05:45:21;;;;;;;2.80;2.22;;;;;;;;;;5041394;28;20220;-68
2022/08/08 05:47:48;;;;;;;2.60;2.40;;;;;;;;;;5040917;28;20542;-68
2022/08/08 05:50:14;;;;;;;2.90;2.17;;;;;;;;;;5041188;28;20424;-68
2022/08/08 05:52:41;;;;;;;3.38;2.10;;;;;;;;;;5040776;28;20214;-68
2022/08/08 05:55:09;;;;;;;4.38;2.38;;;;;;;;;;5040883;28;20505;-68
2022/08/08 05:57:36;;;;;;;4.88;2.00;;;;;;;;;;5041160;28;20227;-68
2022/08/08 06:00:04;;;;;;;2.88;2.60;;;;;;;;;;5041050;28;20446;-68
2022/08/08 06:05:17;;;;;;;6.20;2.40;;;;;;;;;;5040817;28;20217;-68
2022/08/08 06:07:46;;;;;;;5.47;2.55;;;;;;;;;;5040839;28;20234;-68
2022/08/08 06:10:13;;;;;;;4.28;2.17;;;;;;;;;;5041021;28;20494;-68
2022/08/08 06:12:41;;;;;;;3.38;2.60;;;;;;;;;;5041000;28;20529;-68
2022/08/08 06:15:08;;;;;;;3.38;2.50;;;;;;;;;;5040886;27;20207;-68
2022/08/08 06:17:35;;;;;;;5.30;2.50;;;;;;;;;;5040463;28;20255;-68
2022/08/08 06:20:02;;;;;;;4.38;2.47;;;;;;;;;;5040558;28;20405;-68
2022/08/08 06:22:29;;;;;;;3.63;2.30;;;;;;;;;;5040915;28;20239;-68
2022/08/08 06:24:55;;;;;;;6.10;2.45;;;;;;;;;;5041151;28;20513;-68
2022/08/08 06:27:28;;;;;;;2.78;2.58;;;;;;;;;;5040859;28;20205;-68
2022/08/08 06:29:56;;;;;;;2.35;2.22;;;;;;;;;;5040911;28;20429;-68
2022/08/08 06:32:24;;;;;;;3.72;2.72;;;;;;;;;;5040860;28;20213;-69
2022/08/08 06:34:53;;;;;;;4.60;2.28;;;;;;;;;;5041097;28;20205;-69
2022/08/08 06:37:22;;;;;;;4.05;2.17;;;;;;;;;;5039835;28;20198;-69
2022/08/08 06:39:50;;;;;;;4.05;2.47;;;;;;;;;;5042014;28;20227;-69
2022/08/08 06:42:17;;;;;;;3.85;2.60;;;;;;;;;;5042253;28;20198;-69
2022/08/08 06:44:48;;;;;;;3.58;2.50;;;;;;;;;;5040812;27;20198;-69
2022/08/08 06:47:14;;;;;;;3.42;3.05;;;;;;;;;;5040817;28;20204;-69
2022/08/08 06:49:41;;;;;;;3.60;2.40;;;;;;;;;;5040793;28;20521;-69
2022/08/08 06:52:08;;;;;;;5.95;2.38;;;;;;;;;;5040634;28;20235;-69
2022/08/08 06:54:34;;;;;;;2.60;2.40;;;;;;;;;;5040659;28;20231;-69
2022/08/08 06:57:01;;;;;;;4.30;2.80;;;;;;;;;;5040590;28;20206;-69
2022/08/08 06:59:27;;;;;;;7.50;2.53;;;;;;;;;;5040439;28;20231;-69
2022/08/08 07:01:57;;;;;;;5.40;2.60;;;;;;;;;;5040476;28;20202;-68
2022/08/08 07:04:25;;;;;;;5.05;2.47;;;;;;;;;;5040647;28;20198;-68
2022/08/08 07:06:54;;;;;;;2.90;2.20;;;;;;;;;;5040192;28;20250;-69
2022/08/08 07:09:21;;;;;;;3.72;2.17;;;;;;;;;;5040415;28;20201;-69
2022/08/08 07:11:48;;;;;;;6.47;2.60;;;;;;;;;;5040290;28;20536;-69
2022/08/08 07:14:16;;;;;;;10.05;3.30;;;;;;;;;;5040467;27;20218;-69
2022/08/08 07:16:47;;;;;;;3.55;3.00;;;;;;;;;;5040443;28;20243;-69
2022/08/08 07:19:19;;;;;;;3.15;2.50;;;;;;;;;;5040423;28;20340;-69
2022/08/08 07:21:53;;;;;;;5.00;2.50;;;;;;;;;;5040472;28;20205;-69
2022/08/08 07:24:25;;;;;;;4.53;2.33;;;;;;;;;;5040194;28;20193;-69
2022/08/08 07:26:52;;;;;;;7.25;2.47;;;;;;;;;;5040203;28;20251;-69
2022/08/08 07:29:19;;;;;;;3.85;2.30;;;;;;;;;;5040046;28;20242;-69
2022/08/08 07:31:45;;;;;;;7.25;2.20;;;;;;;;;;5040365;28;20202;-69
2022/08/08 07:34:12;;;;;;;10.38;2.40;;;;;;;;;;5039987;28;20287;-69
2022/08/08 07:36:40;;;;;;;2.40;2.20;;;;;;;;;;5039841;28;20197;-69
2022/08/08 07:39:07;;;;;;;2.13;2.00;;;;;;;;;;5039901;28;20233;-69
2022/08/08 07:41:36;;;;;;;4.13;2.30;;;;;;;;;;5040279;28;20198;-69
2022/08/08 07:44:04;;;;;;;4.68;2.80;;;;;;;;;;5040064;28;20194;-69
2022/08/08 07:46:31;;;;;;;2.60;1.63;;;;;;;;;;5039104;28;20337;-69
2022/08/08 07:48:57;;;;;;;2.83;2.08;;;;;;;;;;5038906;28;20277;-69
2022/08/08 07:51:24;;;;;;;6.53;2.40;;;;;;;;;;5039173;28;20268;-69
2022/08/08 07:53:57;;;;;;;4.05;2.30;;;;;;;;;;5038979;28;20218;-69
2022/08/08 07:56:26;;;;;;;4.45;2.00;;;;;;;;;;5039190;28;20205;-69
2022/08/08 07:58:52;;;;;;;5.97;2.10;;;;;;;;;;5039178;28;20202;-69
2022/08/08 08:01:21;;;;;;;2.80;2.40;;;;;;;;;;5039101;28;20258;-69
2022/08/08 08:03:52;;;;;;;7.55;2.60;;;;;;;;;;5039026;28;20486;-69
2022/08/08 08:06:19;;;;;;;3.00;1.98;;;;;;;;;;5038831;28;20225;-69
2022/08/08 08:08:47;;;;;;;5.45;2.20;;;;;;;;;;5039219;28;20398;-69
2022/08/08 08:11:16;;;;;;;4.15;3.30;;;;;;;;;;5039293;28;20436;-69
2022/08/08 08:13:51;;;;;;;4.47;4.07;;;;;;;;;;5038884;28;20209;-69
2022/08/08 08:16:19;;;;;;;4.25;3.05;;;;;;;;;;5038733;28;20228;-69
2022/08/08 08:18:46;;;;;;;2.63;2.42;;;;;;;;;;5039051;28;20416;-69
2022/08/08 08:21:12;;;;;;;2.88;2.25;;;;;;;;;;5038959;28;20235;-69
2022/08/08 08:23:39;;;;;;;2.45;2.25;;;;;;;;;;5038830;28;20383;-69
2022/08/08 08:26:05;;;;;;;2.92;2.30;;;;;;;;;;5038687;28;20250;-69
2022/08/08 08:28:32;;;;;;;3.65;1.90;;;;;;;;;;5038591;28;20219;-69
2022/08/08 08:31:03;;;;;;;2.38;1.90;;;;;;;;;;5038739;28;20197;-69
2022/08/08 08:33:30;;;;;;;2.17;1.70;;;;;;;;;;5038905;28;20217;-69
2022/08/08 08:35:56;;;;;;;2.78;1.42;;;;;;;;;;5038684;28;20244;-69
2022/08/08 08:38:22;;;;;;;4.03;1.60;;;;;;;;;;5038948;28;20224;-69
2022/08/08 08:40:48;;;;;;;2.50;2.30;;;;;;;;;;5039106;28;20202;-69
2022/08/08 08:43:15;;;;;;;7.40;1.92;;;;;;;;;;5039366;28;20197;-69
2022/08/08 08:45:43;;;;;;;3.10;2.05;;;;;;;;;;5039031;28;20204;-69
2022/08/08 08:48:10;;;;;;;1.77;1.67;;;;;;;;;;5038989;28;20363;-69
2022/08/08 08:50:37;;;;;;;2.80;2.60;;;;;;;;;;5039244;28;20205;-69
2022/08/08 08:53:05;;;;;;;5.30;2.00;;;;;;;;;;5038867;28;20221;-69
2022/08/08 08:55:33;;;;;;;2.65;2.10;;;;;;;;;;5038966;28;20198;-69
2022/08/08 08:58:00;;;;;;;1.52;1.52;;;;;;;;;;5038140;28;20197;-69
2022/08/08 09:00:27;;;;;;;3.58;1.95;;;;;;;;;;5039690;28;20266;-69
2022/08/08 09:02:58;;;;;;;1.90;1.80;;;;;;;;;;5042016;28;20201;-69
2022/08/08 09:05:25;;;;;;;2.13;1.98;;;;;;;;;;5041720;28;20233;-69
2022/08/08 09:07:53;;;;;;;1.70;1.60;;;;;;;;;;5042076;28;20288;-69
2022/08/08 09:10:22;;;;;;;1.98;1.88;;;;;;;;;;5041635;28;20202;-69
2022/08/08 09:12:49;;;;;;;1.90;1.80;;;;;;;;;;5041456;28;20392;-69
2022/08/08 09:15:16;;;;;;;2.17;1.55;;;;;;;;;;5041780;28;20242;-69
2022/08/08 09:17:42;;;;;;;3.70;1.92;;;;;;;;;;5041515;28;20257;-69
2022/08/08 09:20:11;;;;;;;1.75;1.67;;;;;;;;;;5041664;28;20225;-69
2022/08/08 09:22:37;;;;;;;1.50;1.50;;;;;;;;;;5041487;28;20213;-69
2022/08/08 09:25:04;;;;;;;2.92;1.75;;;;;;;;;;5041656;28;20197;-69
2022/08/08 09:27:30;;;;;;;4.80;2.45;;;;;;;;;;5041310;28;20258;-69
2022/08/08 09:30:00;;;;;;;1.70;1.60;;;;;;;;;;5041819;28;20197;-69
2022/08/08 09:32:33;;;;;;;1.85;1.45;;;;;;;;;;5042176;28;20372;-69
2022/08/08 09:35:00;;;;;;;2.83;2.10;;;;;;;;;;5042171;28;20221;-69
2022/08/08 09:37:30;;;;;;;2.85;1.38;;;;;;;;;;5041744;28;20197;-69
2022/08/08 09:40:00;;;;;;;2.25;2.00;;;;;;;;;;5041811;28;20209;-69
2022/08/08 09:42:32;;;;;;;1.52;1.33;;;;;;;;;;5042184;28;20198;-69
2022/08/08 09:45:03;;;;;;;5.75;1.75;;;;;;;;;;5041898;28;20185;-69
2022/08/08 09:47:31;;;;;;;2.13;2.03;;;;;;;;;;5042066;28;20197;-69
2022/08/08 09:49:58;;;;;;;1.35;1.35;;;;;;;;;;5041730;28;20220;-69
2022/08/08 09:52:28;;;;;;;5.97;1.63;;;;;;;;;;5041736;28;20225;-70
2022/08/08 09:54:56;;;;;;;3.42;1.52;;;;;;;;;;5041542;28;20233;-69
2022/08/08 09:57:27;;;;;;;2.50;1.30;;;;;;;;;;5041597;28;20201;-69
2022/08/08 09:59:56;;;;;;;1.15;1.15;;;;;;;;;;5041531;28;20242;-69
2022/08/08 10:02:23;;;;;;;1.05;1.00;;;;;;;;;;5041536;28;20206;-70
2022/08/08 10:04:50;;;;;;;1.08;1.00;;;;;;;;;;5041476;28;20285;-70
2022/08/08 10:07:17;;;;;;;1.35;1.35;;;;;;;;;;5041547;28;20204;-70
2022/08/08 10:09:44;;;;;;;1.75;0.90;;;;;;;;;;5041347;28;20197;-70
2022/08/08 10:12:11;;;;;;;3.30;0.95;;;;;;;;;;5040226;27;20425;-70
2022/08/08 10:14:38;;;;;;;1.80;1.65;;;;;;;;;;5041327;28;20533;-70
2022/08/08 10:17:05;;;;;;;3.78;0.82;;;;;;;;;;5041144;28;20239;-70
2022/08/08 10:19:35;;;;;;;4.75;1.17;;;;;;;;;;5041185;28;20197;-70
2022/08/08 10:22:02;;;;;;;3.50;1.30;;;;;;;;;;5041611;28;20419;-70
2022/08/08 10:24:28;;;;;;;1.27;1.15;;;;;;;;;;5041552;27;20546;-70
2022/08/08 10:26:58;;;;;;;1.63;1.10;;;;;;;;;;5041129;28;20201;-70
2022/08/08 10:29:36;;;;;;;1.42;1.23;;;;;;;;;;5041216;28;20197;-70
2022/08/08 10:34:51;;;;;;;1.95;0.82;;;;;;;;;;5041060;28;20225;-70
2022/08/08 10:37:21;;;;;;;1.30;0.80;;;;;;;;;;5040956;28;20198;-69
2022/08/08 10:39:48;;;;;;;1.15;0.90;;;;;;;;;;5041403;28;20424;-70
2022/08/08 10:42:16;;;;;;;0.95;0.95;;;;;;;;;;5042097;27;20501;-70
2022/08/08 10:44:43;;;;;;;2.28;1.60;;;;;;;;;;5041202;28;20238;-70
2022/08/08 10:47:10;;;;;;;1.15;0.63;;;;;;;;;;5040782;28;20197;-70
2022/08/08 10:49:37;;;;;;;0.85;0.85;;;;;;;;;;5040918;28;20197;-70
2022/08/08 10:52:03;;;;;;;1.88;1.70;;;;;;;;;;5041123;28;20190;-70
2022/08/08 10:54:29;;;;;;;1.90;0.90;;;;;;;;;;5040641;28;20222;-70
2022/08/08 10:56:56;;;;;;;2.80;1.25;;;;;;;;;;5040308;28;20242;-70
2022/08/08 10:59:22;;;;;;;1.23;0.90;;;;;;;;;;5040882;28;20197;-70
2022/08/08 11:01:50;;;;;;;1.10;1.00;;;;;;;;;;5040883;28;20269;-70
2022/08/08 11:04:17;;;;;;;3.92;1.08;;;;;;;;;;5040542;28;20246;-70
2022/08/08 11:06:43;;;;;;;0.80;0.60;;;;;;;;;;5040206;28;20270;-70
2022/08/08 11:09:10;;;;;;;1.65;0.65;;;;;;;;;;5040499;28;20235;-70
2022/08/08 11:11:37;;;;;;;5.55;0.77;;;;;;;;;;5040530;28;20270;-70
2022/08/08 11:14:04;;;;;;;1.58;0.75;;;;;;;;;;5040440;28;20233;-69
2022/08/08 11:16:32;;;;;;;1.00;0.88;;;;;;;;;;5040269;28;20197;-69
2022/08/08 11:18:59;;;;;;;2.33;0.98;;;;;;;;;;5040404;28;20274;-69
2022/08/08 11:21:26;;;;;;;1.35;0.80;;;;;;;;;;5040480;28;20198;-70
2022/08/08 11:23:53;;;;;;;1.50;1.00;;;;;;;;;;5039685;28;20193;-70
2022/08/08 11:26:19;;;;;;;2.25;1.20;;;;;;;;;;5039803;28;20203;-70
2022/08/08 11:28:46;;;;;;;1.45;0.90;;;;;;;;;;5040444;28;20202;-70
2022/08/08 11:31:14;;;;;;;1.08;1.08;;;;;;;;;;5040208;28;20243;-70
2022/08/08 11:33:42;;;;;;;1.02;0.90;;;;;;;;;;5040267;28;20243;-70
2022/08/08 11:36:09;;;;;;;0.80;0.80;;;;;;;;;;5040240;28;20225;-70
2022/08/08 11:38:36;;;;;;;1.15;0.63;;;;;;;;;;5039767;28;20197;-70
2022/08/08 11:41:03;;;;;;;0.82;0.82;;;;;;;;;;5040207;28;20556;-70
2022/08/08 11:43:31;;;;;;;0.82;0.70;;;;;;;;;;5040055;28;20193;-70
2022/08/08 11:45:58;;;;;;;1.65;0.73;;;;;;;;;;5039884;28;20200;-70
2022/08/08 11:48:24;;;;;;;0.80;0.80;;;;;;;;;;5040006;28;20221;-70
2022/08/08 11:50:51;;;;;;;6.50;1.05;;;;;;;;;;5039821;28;20235;-70
2022/08/08 11:53:19;;;;;;;1.80;1.05;;;;;;;;;;5039955;28;20217;-70
2022/08/08 11:55:49;;;;;;;0.60;0.60;;;;;;;;;;5039998;28;20221;-70
2022/08/08 11:58:15;;;;;;;0.55;0.55;;;;;;;;;;5039703;28;20508;-70
2022/08/08 12:00:45;;;;;;;0.80;0.80;;;;;;;;;;5039855;28;20258;-70
2022/08/08 12:03:15;;;;;;;4.20;0.70;;;;;;;;;;5039776;28;20212;-70
2022/08/08 12:05:41;;;;;;;0.70;0.70;;;;;;;;;;5039728;28;20387;-68
2022/08/08 12:08:09;;;;;;;0.40;0.40;;;;;;;;;;5039727;27;20197;-70
2022/08/08 12:10:46;;;;;;;3.20;2.10;;;;;;;;;;5040021;28;20197;-70
2022/08/08 12:13:14;;;;;;;0.90;0.63;;;;;;;;;;5039692;28;20197;-68
2022/08/08 12:15:46;;;;;;;2.28;0.60;;;;;;;;;;5039440;28;20225;-69
2022/08/08 12:18:14;;;;;;;1.08;0.50;;;;;;;;;;5039455;28;20197;-70
2022/08/08 12:20:40;;;;;;;0.95;0.68;;;;;;;;;;5039580;28;20197;-70
2022/08/08 12:23:06;;;;;;;0.80;0.55;;;;;;;;;;5039545;28;20288;-70
2022/08/08 12:25:34;;;;;;;0.73;0.40;;;;;;;;;;5039610;28;20415;-70
2022/08/08 12:28:12;;;;;;;0.88;0.60;;;;;;;;;;5039140;28;20234;-70
2022/08/08 12:30:39;;;;;;;0.38;0.38;;;;;;;;;;5039170;28;20197;-70
2022/08/08 12:33:15;;;;;;;0.57;0.57;;;;;;;;;;5039387;28;20425;-70
2022/08/08 12:35:42;;;;;;;1.98;0.90;;;;;;;;;;5038123;28;20292;-70
2022/08/08 12:38:10;;;;;;;1.17;0.60;;;;;;;;;;5038907;28;20239;-70
2022/08/08 12:40:38;;;;;;;1.52;0.52;;;;;;;;;;5039217;28;20197;-70
2022/08/08 12:43:04;;;;;;;3.33;0.68;;;;;;;;;;5038919;28;20204;-70
2022/08/08 12:45:33;;;;;;;2.13;0.70;;;;;;;;;;5039211;28;20575;-70
2022/08/08 12:48:01;;;;;;;0.52;0.50;;;;;;;;;;5038716;28;20205;-70
2022/08/08 12:50:37;;;;;;;0.95;0.70;;;;;;;;;;5039091;28;20197;-70
2022/08/08 12:53:03;;;;;;;0.88;0.52;;;;;;;;;;5038791;28;20216;-70
2022/08/08 12:55:29;;;;;;;0.73;0.70;;;;;;;;;;5039081;28;20548;-70
2022/08/08 12:57:56;;;;;;;1.95;0.57;;;;;;;;;;5038692;28;20550;-70
2022/08/08 13:00:27;;;;;;;2.97;0.65;;;;;;;;;;5039397;28;20529;-70
2022/08/08 13:02:58;;;;;;;1.05;0.60;;;;;;;;;;5039089;28;20577;-70
2022/08/08 13:05:24;;;;;;;0.82;0.82;;;;;;;;;;5038850;28;20553;-70
2022/08/08 13:07:50;;;;;;;2.25;0.60;;;;;;;;;;5038729;28;20198;-70
2022/08/08 13:10:18;;;;;;;0.77;0.60;;;;;;;;;;5038635;28;20198;-70
2022/08/08 13:12:45;;;;;;;1.95;0.80;;;;;;;;;;5039313;28;20345;-70
2022/08/08 13:15:14;;;;;;;2.28;0.73;;;;;;;;;;5038960;28;20266;-70
2022/08/08 13:17:41;;;;;;;0.60;0.60;;;;;;;;;;5038633;28;20201;-70
2022/08/08 13:20:14;;;;;;;0.77;0.70;;;;;;;;;;5038655;28;20197;-70
2022/08/08 13:22:42;;;;;;;1.70;0.70;;;;;;;;;;5039180;28;20203;-70
2022/08/08 13:25:12;;;;;;;0.75;0.55;;;;;;;;;;5039028;28;20197;-70
2022/08/08 13:27:39;;;;;;;2.13;0.63;;;;;;;;;;5038677;28;20209;-70
2022/08/08 13:30:06;;;;;;;1.58;0.80;;;;;;;;;;5038754;28;20197;-70
2022/08/08 13:32:34;;;;;;;0.85;0.85;;;;;;;;;;5038506;28;20420;-70
2022/08/08 13:35:01;;;;;;;1.17;0.68;;;;;;;;;;5038310;28;20218;-70
2022/08/08 13:37:30;;;;;;;0.82;0.80;;;;;;;;;;5038046;28;20258;-70
2022/08/08 13:39:56;;;;;;;0.80;0.80;;;;;;;;;;5038593;28;20273;-70
2022/08/08 13:42:24;;;;;;;0.50;0.50;;;;;;;;;;5038261;28;20234;-70
2022/08/08 13:44:54;;;;;;;0.50;0.50;;;;;;;;;;5038383;28;20205;-70
2022/08/08 13:47:20;;;;;;;1.73;0.60;;;;;;;;;;5040411;28;20500;-70
2022/08/08 13:49:55;;;;;;;0.80;0.80;;;;;;;;;;5041497;28;20205;-70
2022/08/08 13:52:22;;;;;;;3.00;0.70;;;;;;;;;;5041788;28;20200;-70
2022/08/08 13:54:49;;;;;;;0.60;0.60;;;;;;;;;;5041159;28;20228;-70
2022/08/08 13:57:16;;;;;;;1.27;0.50;;;;;;;;;;5040874;28;20205;-70
2022/08/08 13:59:42;;;;;;;1.75;0.70;;;;;;;;;;5041055;28;20363;-70
2022/08/08 14:02:13;;;;;;;5.18;0.70;;;;;;;;;;5040833;28;20235;-70
2022/08/08 14:04:40;;;;;;;0.80;0.63;;;;;;;;;;5041023;28;20193;-70
2022/08/08 14:07:06;;;;;;;0.80;0.70;;;;;;;;;;5040885;27;20193;-70
2022/08/08 14:09:33;;;;;;;1.52;0.70;;;;;;;;;;5040885;28;20208;-70
2022/08/08 14:12:00;;;;;;;0.65;0.65;;;;;;;;;;5040851;28;20197;-70
2022/08/08 14:14:36;;;;;;;0.50;0.50;;;;;;;;;;5040747;28;20363;-70
2022/08/08 14:17:03;;;;;;;0.75;0.70;;;;;;;;;;5040522;28;20205;-70
2022/08/08 14:19:34;;;;;;;0.50;0.50;;;;;;;;;;5040655;28;20198;-70
2022/08/08 14:22:01;;;;;;;1.35;0.80;;;;;;;;;;5040472;28;20277;-70
2022/08/08 14:24:30;;;;;;;1.33;0.70;;;;;;;;;;5040739;28;20409;-70
2022/08/08 14:26:56;;;;;;;0.75;0.68;;;;;;;;;;5040577;28;20198;-69
2022/08/08 14:29:25;;;;;;;1.73;0.77;;;;;;;;;;5040585;28;20212;-69
2022/08/08 14:31:52;;;;;;;0.95;0.65;;;;;;;;;;5040925;28;20201;-69
2022/08/08 14:34:18;;;;;;;2.05;0.63;;;;;;;;;;5040753;28;20201;-69
2022/08/08 14:36:48;;;;;;;1.15;0.75;;;;;;;;;;5040300;28;20243;-69
2022/08/08 14:39:18;;;;;;;1.13;0.65;;;;;;;;;;5040500;28;20197;-69
2022/08/08 14:41:44;;;;;;;0.80;0.77;;;;;;;;;;5040558;28;20197;-69
2022/08/08 14:44:11;;;;;;;1.63;0.80;;;;;;;;;;5040848;28;20213;-70
2022/08/08 14:46:39;;;;;;;2.00;0.80;;;;;;;;;;5040334;28;20447;-70
2022/08/08 14:49:09;;;;;;;1.02;0.70;;;;;;;;;;5040504;28;20242;-69
2022/08/08 14:51:38;;;;;;;2.90;0.50;;;;;;;;;;5040289;28;20197;-69
2022/08/08 14:54:05;;;;;;;0.60;0.60;;;;;;;;;;5039890;28;20205;-69
2022/08/08 14:56:34;;;;;;;1.40;0.70;;;;;;;;;;5039820;28;20222;-69
2022/08/08 14:59:00;;;;;;;0.50;0.50;;;;;;;;;;5039641;27;20198;-70
2022/08/08 15:01:27;;;;;;;1.35;0.50;;;;;;;;;;5040161;28;20235;-70
2022/08/08 15:03:55;;;;;;;2.70;0.60;;;;;;;;;;5040288;27;20243;-69
2022/08/08 15:06:21;;;;;;;1.00;0.90;;;;;;;;;;5039616;28;20217;-69
2022/08/08 15:08:47;;;;;;;1.63;0.80;;;;;;;;;;5039859;28;20262;-69
2022/08/08 15:11:13;;;;;;;1.15;0.60;;;;;;;;;;5039731;28;20558;-69
2022/08/08 15:13:40;;;;;;;1.63;0.70;;;;;;;;;;5039955;28;20430;-69